Time;durP1;ratioP1;P1;durP2;ratioP2;P2;SDS_P1;SDS_P2;PMS_P1;PMS_P2;Temp;Humidity;BMP_temperature;BMP_pressure;BME280_temperature;BME280_humidity;BME280_pressure;Samples;Min_cycle;Max_cycle;Signal;HPM_P1;HPM_P2
2021/06/02 00:00:23;;;;;;;4.63;3.60;;;;;;;;;;5005128;28;20428;-70
2021/06/02 00:02:53;;;;;;;4.90;3.30;;;;;;;;;;4998398;28;20479;-69
2021/06/02 00:05:19;;;;;;;5.50;3.37;;;;;;;;;;4994246;28;20506;-70
2021/06/02 00:07:46;;;;;;;3.70;3.00;;;;;;;;;;4993785;28;20920;-70
2021/06/02 00:10:14;;;;;;;4.53;3.37;;;;;;;;;;4994144;28;20471;-70
2021/06/02 00:12:40;;;;;;;5.00;3.40;;;;;;;;;;4994236;28;20429;-70
2021/06/02 00:15:07;;;;;;;7.87;3.23;;;;;;;;;;5013117;28;20412;-70
2021/06/02 00:17:33;;;;;;;7.17;3.83;;;;;;;;;;5012260;28;20404;-70
2021/06/02 00:19:59;;;;;;;6.10;2.80;;;;;;;;;;5012737;28;20443;-69
2021/06/02 00:22:26;;;;;;;6.00;3.20;;;;;;;;;;4998401;28;20448;-69
2021/06/02 00:24:52;;;;;;;5.20;3.67;;;;;;;;;;5011562;28;20768;-70
2021/06/02 00:27:18;;;;;;;6.80;4.20;;;;;;;;;;5013258;28;20400;-70
2021/06/02 00:29:45;;;;;;;6.70;3.70;;;;;;;;;;5011685;28;20431;-69
2021/06/02 00:32:11;;;;;;;6.67;3.70;;;;;;;;;;5012916;28;20436;-70
2021/06/02 00:34:38;;;;;;;6.10;3.60;;;;;;;;;;5011686;28;20477;-69
2021/06/02 00:37:04;;;;;;;10.40;4.47;;;;;;;;;;5012689;28;20404;-69
2021/06/02 00:39:31;;;;;;;13.43;3.70;;;;;;;;;;5011508;28;20458;-69
2021/06/02 00:41:57;;;;;;;10.50;4.63;;;;;;;;;;5012888;28;20771;-69
2021/06/02 00:44:23;;;;;;;8.20;3.57;;;;;;;;;;4998189;28;20432;-69
2021/06/02 00:46:50;;;;;;;6.67;3.47;;;;;;;;;;4995239;28;20409;-69
2021/06/02 00:49:26;;;;;;;6.83;3.30;;;;;;;;;;5008884;28;20436;-69
2021/06/02 00:51:56;;;;;;;6.17;4.20;;;;;;;;;;5015917;28;20441;-70
2021/06/02 00:54:22;;;;;;;11.00;3.07;;;;;;;;;;5001875;28;20428;-71
2021/06/02 00:56:50;;;;;;;5.63;3.10;;;;;;;;;;5013969;28;20427;-69
2021/06/02 00:59:22;;;;;;;5.23;3.13;;;;;;;;;;5014937;28;20451;-69
2021/06/02 01:01:48;;;;;;;6.60;4.20;;;;;;;;;;5015805;28;20473;-69
2021/06/02 01:04:16;;;;;;;9.07;5.70;;;;;;;;;;5014887;28;20427;-69
2021/06/02 01:06:44;;;;;;;6.57;4.30;;;;;;;;;;5016005;28;20403;-69
2021/06/02 01:09:11;;;;;;;8.40;4.20;;;;;;;;;;5014637;28;20867;-69
2021/06/02 01:11:38;;;;;;;6.87;5.10;;;;;;;;;;5015572;28;20419;-70
2021/06/02 01:14:04;;;;;;;9.67;4.67;;;;;;;;;;5004924;28;20435;-69
2021/06/02 01:16:34;;;;;;;7.07;4.00;;;;;;;;;;4996023;28;20771;-69
2021/06/02 01:19:01;;;;;;;11.40;4.50;;;;;;;;;;5009239;28;20463;-69
2021/06/02 01:21:28;;;;;;;8.90;4.53;;;;;;;;;;5015337;28;20412;-69
2021/06/02 01:23:58;;;;;;;7.90;4.17;;;;;;;;;;5012996;28;20452;-69
2021/06/02 01:26:24;;;;;;;7.13;4.20;;;;;;;;;;5015344;28;20419;-69
2021/06/02 01:28:51;;;;;;;11.37;6.70;;;;;;;;;;5012253;28;20427;-69
2021/06/02 01:31:37;;;;;;;7.90;5.07;;;;;;;;;;5015553;28;20780;-69
2021/06/02 01:34:03;;;;;;;6.87;4.60;;;;;;;;;;5008610;28;20498;-70
2021/06/02 01:36:50;;;;;;;9.57;4.40;;;;;;;;;;5008611;28;20438;-69
2021/06/02 01:39:34;;;;;;;8.10;4.00;;;;;;;;;;5013988;28;20534;-69
2021/06/02 01:42:19;;;;;;;8.27;3.50;;;;;;;;;;5015048;28;20474;-69
2021/06/02 01:44:48;;;;;;;6.33;4.33;;;;;;;;;;5013264;28;20916;-70
2021/06/02 01:47:42;;;;;;;8.40;4.80;;;;;;;;;;5014981;28;20396;-69
2021/06/02 01:50:30;;;;;;;7.73;5.00;;;;;;;;;;5013683;28;20427;-69
2021/06/02 01:53:15;;;;;;;7.10;5.10;;;;;;;;;;5014830;28;20451;-69
2021/06/02 01:55:47;;;;;;;18.23;5.17;;;;;;;;;;5009461;28;20529;-69
2021/06/02 01:58:16;;;;;;;14.77;4.77;;;;;;;;;;4995073;28;20542;-68
2021/06/02 02:00:52;;;;;;;9.77;4.97;;;;;;;;;;5011600;28;20467;-68
2021/06/02 02:03:20;;;;;;;10.90;5.00;;;;;;;;;;5013988;28;20451;-68
2021/06/02 02:06:02;;;;;;;6.77;4.03;;;;;;;;;;5013244;28;20428;-68
2021/06/02 02:08:34;;;;;;;9.80;5.03;;;;;;;;;;5014850;28;20542;-69
2021/06/02 02:11:03;;;;;;;6.77;4.73;;;;;;;;;;5013464;28;20444;-68
2021/06/02 02:13:48;;;;;;;5.57;4.67;;;;;;;;;;5014391;28;20507;-68
2021/06/02 02:16:26;;;;;;;4.33;3.60;;;;;;;;;;4994862;28;20408;-68
2021/06/02 02:19:24;;;;;;;5.90;4.33;;;;;;;;;;5001634;28;20455;-69
2021/06/02 02:22:10;;;;;;;6.37;4.50;;;;;;;;;;5004200;28;20822;-68
2021/06/02 02:24:48;;;;;;;9.83;4.10;;;;;;;;;;4997838;28;20437;-68
2021/06/02 02:27:23;;;;;;;8.80;4.47;;;;;;;;;;4993548;28;20408;-68
2021/06/02 02:29:59;;;;;;;5.67;4.10;;;;;;;;;;4994779;28;20428;-68
2021/06/02 02:32:44;;;;;;;5.37;4.37;;;;;;;;;;4994903;28;20523;-69
2021/06/02 02:35:29;;;;;;;7.37;4.63;;;;;;;;;;5005368;28;20791;-68
2021/06/02 02:38:00;;;;;;;6.93;4.03;;;;;;;;;;5014438;28;20399;-69
2021/06/02 02:40:45;;;;;;;5.63;4.30;;;;;;;;;;5013540;28;20435;-68
2021/06/02 02:43:12;;;;;;;6.83;4.50;;;;;;;;;;5014258;28;20416;-68
2021/06/02 02:45:53;;;;;;;4.93;4.20;;;;;;;;;;4999428;28;20795;-68
2021/06/02 02:48:19;;;;;;;5.40;4.63;;;;;;;;;;4994752;28;20407;-69
2021/06/02 02:51:04;;;;;;;8.70;4.80;;;;;;;;;;5009432;28;20520;-68
2021/06/02 02:53:43;;;;;;;9.77;4.53;;;;;;;;;;5013707;28;20991;-68
2021/06/02 02:56:17;;;;;;;7.57;5.00;;;;;;;;;;4994450;28;20432;-70
2021/06/02 02:58:50;;;;;;;7.17;5.67;;;;;;;;;;4994042;28;20462;-68
2021/06/02 03:01:23;;;;;;;8.60;4.53;;;;;;;;;;4996968;28;20459;-68
2021/06/02 03:03:49;;;;;;;6.50;5.13;;;;;;;;;;5013533;28;20447;-68
2021/06/02 03:06:20;;;;;;;10.33;5.00;;;;;;;;;;5011055;28;20431;-68
2021/06/02 03:08:55;;;;;;;8.07;4.80;;;;;;;;;;5013335;28;20411;-68
2021/06/02 03:11:26;;;;;;;7.80;5.80;;;;;;;;;;5012507;28;20443;-68
2021/06/02 03:14:11;;;;;;;7.30;5.60;;;;;;;;;;5013286;28;20430;-68
2021/06/02 03:16:39;;;;;;;8.23;5.17;;;;;;;;;;5013446;28;20411;-68
2021/06/02 03:19:08;;;;;;;8.37;5.23;;;;;;;;;;5012383;28;20948;-68
2021/06/02 03:21:37;;;;;;;7.90;5.20;;;;;;;;;;4993895;28;20428;-69
2021/06/02 03:24:09;;;;;;;6.07;4.43;;;;;;;;;;4993191;28;20483;-71
2021/06/02 03:26:38;;;;;;;8.27;4.47;;;;;;;;;;4993989;28;20450;-68
2021/06/02 03:29:16;;;;;;;7.27;4.67;;;;;;;;;;4993290;28;20452;-70
2021/06/02 03:31:42;;;;;;;8.37;5.33;;;;;;;;;;4993882;28;20491;-68
2021/06/02 03:34:26;;;;;;;8.63;5.80;;;;;;;;;;4993470;28;20404;-69
2021/06/02 03:37:01;;;;;;;6.23;5.03;;;;;;;;;;4993574;28;20416;-68
2021/06/02 03:39:46;;;;;;;8.10;4.60;;;;;;;;;;4995388;28;20556;-68
2021/06/02 03:42:15;;;;;;;7.47;5.30;;;;;;;;;;5001399;28;20530;-68
2021/06/02 03:44:51;;;;;;;10.03;5.47;;;;;;;;;;5011913;28;20430;-68
2021/06/02 03:47:20;;;;;;;8.33;4.83;;;;;;;;;;5013230;28;20434;-68
2021/06/02 03:49:49;;;;;;;5.00;3.83;;;;;;;;;;5012171;28;20436;-68
2021/06/02 03:52:23;;;;;;;5.60;4.07;;;;;;;;;;5035185;23;20544;-66
2021/06/02 03:54:54;;;;;;;8.50;4.47;;;;;;;;;;5012625;28;20420;-67
2021/06/02 03:57:38;;;;;;;8.90;4.13;;;;;;;;;;5012306;28;20487;-67
2021/06/02 04:00:11;;;;;;;4.53;3.80;;;;;;;;;;5012529;28;20559;-67
2021/06/02 04:02:43;;;;;;;6.70;4.30;;;;;;;;;;5012948;28;20990;-66
2021/06/02 04:05:36;;;;;;;5.47;4.67;;;;;;;;;;5010128;28;20830;-66
2021/06/02 04:08:20;;;;;;;12.13;4.80;;;;;;;;;;4985280;28;20416;-66
2021/06/02 04:10:52;;;;;;;6.77;4.00;;;;;;;;;;4993435;28;20420;-66
2021/06/02 04:13:35;;;;;;;9.53;4.63;;;;;;;;;;4993339;28;20412;-66
2021/06/02 04:16:09;;;;;;;4.57;4.07;;;;;;;;;;4993346;28;20431;-66
2021/06/02 04:18:36;;;;;;;9.43;4.30;;;;;;;;;;4993555;28;20443;-66
2021/06/02 04:21:03;;;;;;;8.80;4.70;;;;;;;;;;4994358;28;20428;-67
2021/06/02 04:23:29;;;;;;;7.80;4.30;;;;;;;;;;4997938;28;20427;-67
2021/06/02 04:25:57;;;;;;;6.13;4.20;;;;;;;;;;5003958;28;20790;-66
2021/06/02 04:28:23;;;;;;;5.80;4.77;;;;;;;;;;4997018;28;20408;-66
2021/06/02 04:30:50;;;;;;;10.43;4.53;;;;;;;;;;5007060;28;20971;-66
2021/06/02 04:33:17;;;;;;;8.87;5.17;;;;;;;;;;5016338;28;20439;-67
2021/06/02 04:35:44;;;;;;;8.63;4.17;;;;;;;;;;5015733;28;20955;-67
2021/06/02 04:38:11;;;;;;;8.03;3.60;;;;;;;;;;5016436;28;20415;-66
2021/06/02 04:40:39;;;;;;;7.70;4.87;;;;;;;;;;5015356;28;20427;-66
2021/06/02 04:43:06;;;;;;;9.23;4.67;;;;;;;;;;5016447;28;20788;-66
2021/06/02 04:45:36;;;;;;;8.50;5.13;;;;;;;;;;5007165;28;20757;-66
2021/06/02 04:48:02;;;;;;;7.33;5.10;;;;;;;;;;4995484;28;20417;-66
2021/06/02 04:50:31;;;;;;;8.10;5.30;;;;;;;;;;5003180;28;20424;-66
2021/06/02 04:53:06;;;;;;;11.60;4.80;;;;;;;;;;5015932;28;20444;-66
2021/06/02 04:55:41;;;;;;;23.97;9.97;;;;;;;;;;5008899;28;20420;-66
2021/06/02 04:58:25;;;;;;;24.93;9.63;;;;;;;;;;4996686;28;20411;-66
2021/06/02 05:01:10;;;;;;;6.80;4.33;;;;;;;;;;5000327;28;20456;-66
2021/06/02 05:03:42;;;;;;;6.47;4.10;;;;;;;;;;4996287;28;20905;-66
2021/06/02 05:06:17;;;;;;;5.03;3.73;;;;;;;;;;5010069;28;20415;-66
2021/06/02 05:09:02;;;;;;;4.73;3.43;;;;;;;;;;5016140;28;20411;-66
2021/06/02 05:11:47;;;;;;;6.30;4.60;;;;;;;;;;5005000;28;20519;-66
2021/06/02 05:14:31;;;;;;;7.50;4.40;;;;;;;;;;4999016;28;20435;-67
2021/06/02 05:17:00;;;;;;;6.57;4.70;;;;;;;;;;5013885;28;20796;-68
2021/06/02 05:19:54;;;;;;;9.20;4.87;;;;;;;;;;5016542;28;20490;-65
2021/06/02 05:22:35;;;;;;;13.00;5.87;;;;;;;;;;5012488;28;20443;-66
2021/06/02 05:25:27;;;;;;;6.53;4.30;;;;;;;;;;5016885;28;20404;-69
2021/06/02 05:27:53;;;;;;;6.47;4.87;;;;;;;;;;4996073;28;20377;-71
2021/06/02 05:30:19;;;;;;;12.53;5.87;;;;;;;;;;5004728;28;20423;-66
2021/06/02 05:32:54;;;;;;;6.47;4.83;;;;;;;;;;5013950;28;20447;-69
2021/06/02 05:35:20;;;;;;;7.50;5.20;;;;;;;;;;5016621;28;20784;-64
2021/06/02 05:38:04;;;;;;;5.20;3.50;;;;;;;;;;5014467;28;20431;-63
2021/06/02 05:40:36;;;;;;;4.97;3.37;;;;;;;;;;5015332;28;20423;-64
2021/06/02 05:43:05;;;;;;;5.40;3.40;;;;;;;;;;5000349;28;20451;-66
2021/06/02 05:45:37;;;;;;;7.03;3.63;;;;;;;;;;5015383;28;20762;-67
2021/06/02 05:48:22;;;;;;;5.73;3.33;;;;;;;;;;4995940;28;20401;-67
2021/06/02 05:51:23;;;;;;;7.03;4.43;;;;;;;;;;5008844;28;20420;-70
2021/06/02 05:54:08;;;;;;;5.27;3.50;;;;;;;;;;4974418;28;20496;-65
2021/06/02 05:56:34;;;;;;;5.67;3.73;;;;;;;;;;5010010;28;20435;-70
2021/06/02 05:59:00;;;;;;;6.93;3.77;;;;;;;;;;5016233;28;20455;-72
2021/06/02 06:01:26;;;;;;;5.00;3.83;;;;;;;;;;5014589;28;20434;-68
2021/06/02 06:04:02;;;;;;;7.20;6.40;;;;;;;;;;5015160;28;20427;-69
2021/06/02 06:06:31;;;;;;;6.33;3.70;;;;;;;;;;5013715;28;20411;-68
2021/06/02 06:08:57;;;;;;;5.77;3.37;;;;;;;;;;5014904;28;20436;-68
2021/06/02 06:11:29;;;;;;;7.20;3.80;;;;;;;;;;5013714;28;20443;-68
2021/06/02 06:14:21;;;;;;;4.47;3.43;;;;;;;;;;5014444;28;20419;-68
2021/06/02 06:16:53;;;;;;;8.87;4.80;;;;;;;;;;4997947;28;20955;-69
2021/06/02 06:19:41;;;;;;;5.00;3.70;;;;;;;;;;5014848;28;20443;-67
2021/06/02 06:22:16;;;;;;;6.70;3.80;;;;;;;;;;5013312;28;20539;-68
2021/06/02 06:24:51;;;;;;;6.57;3.83;;;;;;;;;;5014780;28;20392;-66
2021/06/02 06:27:39;;;;;;;6.03;4.47;;;;;;;;;;5015294;28;20427;-66
2021/06/02 06:30:22;;;;;;;6.70;4.00;;;;;;;;;;5015766;28;20412;-66
2021/06/02 06:32:50;;;;;;;4.40;3.40;;;;;;;;;;5013509;28;20466;-66
2021/06/02 06:35:17;;;;;;;7.00;4.43;;;;;;;;;;5020583;28;20437;-67
2021/06/02 06:37:45;;;;;;;6.77;3.53;;;;;;;;;;5014701;28;20454;-66
2021/06/02 06:40:13;;;;;;;5.77;3.60;;;;;;;;;;5017101;28;20462;-68
2021/06/02 06:42:41;;;;;;;6.93;3.83;;;;;;;;;;5021246;28;20520;-68
2021/06/02 06:45:16;;;;;;;5.53;3.83;;;;;;;;;;5020129;28;20420;-68
2021/06/02 06:47:43;;;;;;;6.03;3.83;;;;;;;;;;5013342;28;20907;-68
2021/06/02 06:50:10;;;;;;;6.57;3.20;;;;;;;;;;5012997;28;20904;-67
2021/06/02 06:52:36;;;;;;;4.63;3.40;;;;;;;;;;5011876;28;20470;-69
2021/06/02 06:55:04;;;;;;;8.00;3.60;;;;;;;;;;5014222;28;20478;-69
2021/06/02 06:57:31;;;;;;;4.60;3.43;;;;;;;;;;5012832;28;20519;-69
2021/06/02 06:59:58;;;;;;;5.70;3.30;;;;;;;;;;5013833;28;20435;-69
2021/06/02 07:02:24;;;;;;;4.80;3.27;;;;;;;;;;5012703;28;20502;-69
2021/06/02 07:04:50;;;;;;;6.20;3.60;;;;;;;;;;5013884;28;20407;-69
2021/06/02 07:07:17;;;;;;;4.63;3.70;;;;;;;;;;5012909;28;20431;-69
2021/06/02 07:09:43;;;;;;;7.07;3.23;;;;;;;;;;5014005;28;20435;-69
2021/06/02 07:12:09;;;;;;;6.93;3.20;;;;;;;;;;5011182;28;20477;-69
2021/06/02 07:14:37;;;;;;;7.97;3.60;;;;;;;;;;5013890;28;20490;-69
2021/06/02 07:17:05;;;;;;;4.93;3.20;;;;;;;;;;5012981;28;20435;-69
2021/06/02 07:19:37;;;;;;;3.60;3.10;;;;;;;;;;5013668;28;20443;-69
2021/06/02 07:22:03;;;;;;;5.07;2.97;;;;;;;;;;5008159;28;20905;-69
2021/06/02 07:24:30;;;;;;;7.40;2.90;;;;;;;;;;5005695;28;20433;-69
2021/06/02 07:26:56;;;;;;;4.63;2.80;;;;;;;;;;5012827;28;20924;-69
2021/06/02 07:29:23;;;;;;;6.00;2.97;;;;;;;;;;5014017;28;20408;-69
2021/06/02 07:31:49;;;;;;;4.07;2.63;;;;;;;;;;5011336;28;20766;-69
2021/06/02 07:34:16;;;;;;;4.67;2.90;;;;;;;;;;4994364;28;20500;-69
2021/06/02 07:36:42;;;;;;;5.30;3.23;;;;;;;;;;4994554;28;20499;-69
2021/06/02 07:39:08;;;;;;;3.77;2.70;;;;;;;;;;5013730;28;20482;-69
2021/06/02 07:41:34;;;;;;;3.80;2.97;;;;;;;;;;5013626;28;20410;-68
2021/06/02 07:44:00;;;;;;;4.67;2.80;;;;;;;;;;4995120;28;20953;-69
2021/06/02 07:46:26;;;;;;;5.60;3.50;;;;;;;;;;5005503;28;20454;-69
2021/06/02 07:48:52;;;;;;;4.67;2.97;;;;;;;;;;5012311;28;20430;-69
2021/06/02 07:51:18;;;;;;;4.53;2.93;;;;;;;;;;5013424;28;20491;-69
2021/06/02 07:53:44;;;;;;;3.87;2.67;;;;;;;;;;5011646;28;20455;-69
2021/06/02 07:56:10;;;;;;;7.23;2.83;;;;;;;;;;5011039;28;20510;-69
2021/06/02 07:58:36;;;;;;;8.43;2.30;;;;;;;;;;5004972;28;20487;-69
2021/06/02 08:01:04;;;;;;;4.77;2.80;;;;;;;;;;5016600;28;20930;-69
2021/06/02 08:03:30;;;;;;;5.07;2.50;;;;;;;;;;5017127;28;20527;-69
2021/06/02 08:05:56;;;;;;;4.57;2.50;;;;;;;;;;5017252;28;20483;-69
2021/06/02 08:08:22;;;;;;;5.07;3.00;;;;;;;;;;5016254;28;20427;-69
2021/06/02 08:10:48;;;;;;;3.37;2.67;;;;;;;;;;5017242;28;20490;-69
2021/06/02 08:13:14;;;;;;;3.90;2.60;;;;;;;;;;5016249;28;20440;-69
2021/06/02 08:15:41;;;;;;;5.67;2.50;;;;;;;;;;5017086;28;20399;-69
2021/06/02 08:18:07;;;;;;;3.47;2.53;;;;;;;;;;5006367;28;20450;-69
2021/06/02 08:20:33;;;;;;;4.60;3.40;;;;;;;;;;4997831;28;20428;-69
2021/06/02 08:22:59;;;;;;;3.67;2.30;;;;;;;;;;5006409;28;20462;-69
2021/06/02 08:25:25;;;;;;;6.53;2.50;;;;;;;;;;5017229;28;20412;-69
2021/06/02 08:27:51;;;;;;;6.47;2.70;;;;;;;;;;5016053;28;20428;-69
2021/06/02 08:30:17;;;;;;;3.57;2.63;;;;;;;;;;5016592;28;20419;-69
2021/06/02 08:32:44;;;;;;;6.13;2.37;;;;;;;;;;5009602;28;20502;-69
2021/06/02 08:35:10;;;;;;;3.50;2.90;;;;;;;;;;4997246;28;20499;-69
2021/06/02 08:37:37;;;;;;;4.03;2.23;;;;;;;;;;5002664;28;20502;-69
2021/06/02 08:40:03;;;;;;;6.17;3.77;;;;;;;;;;5016602;28;20463;-69
2021/06/02 08:42:29;;;;;;;6.00;3.00;;;;;;;;;;5015086;28;20517;-69
2021/06/02 08:44:55;;;;;;;3.90;2.37;;;;;;;;;;5016895;28;20454;-69
2021/06/02 08:47:21;;;;;;;4.60;2.80;;;;;;;;;;5015759;28;20909;-69
2021/06/02 08:49:48;;;;;;;4.83;3.17;;;;;;;;;;5016730;28;20417;-69
2021/06/02 08:52:14;;;;;;;5.40;2.90;;;;;;;;;;5011623;28;20428;-69
2021/06/02 08:54:40;;;;;;;4.40;3.00;;;;;;;;;;5015992;28;20424;-69
2021/06/02 08:57:07;;;;;;;5.97;2.33;;;;;;;;;;5014558;28;20607;-70
2021/06/02 08:59:34;;;;;;;4.57;2.90;;;;;;;;;;5015427;28;20447;-69
2021/06/02 09:02:01;;;;;;;9.07;3.00;;;;;;;;;;5015887;28;20844;-69
2021/06/02 09:04:27;;;;;;;5.43;3.10;;;;;;;;;;5015526;28;20776;-69
2021/06/02 09:06:53;;;;;;;4.30;2.70;;;;;;;;;;5015162;28;20749;-69
2021/06/02 09:09:19;;;;;;;7.70;3.20;;;;;;;;;;5014546;28;20473;-69
2021/06/02 09:11:49;;;;;;;5.40;3.60;;;;;;;;;;5014882;28;20776;-69
2021/06/02 09:14:24;;;;;;;6.80;2.87;;;;;;;;;;5012643;28;20443;-69
2021/06/02 09:16:52;;;;;;;6.03;3.07;;;;;;;;;;5015408;28;20403;-69
2021/06/02 09:19:30;;;;;;;5.17;3.23;;;;;;;;;;5014273;28;20454;-69
2021/06/02 09:21:57;;;;;;;4.33;2.40;;;;;;;;;;5015335;28;20827;-69
2021/06/02 09:24:43;;;;;;;5.60;3.10;;;;;;;;;;5012996;28;20558;-69
2021/06/02 09:27:09;;;;;;;5.40;3.50;;;;;;;;;;5014625;28;20400;-70
2021/06/02 09:29:48;;;;;;;4.60;2.70;;;;;;;;;;5014780;28;20985;-69
2021/06/02 09:32:16;;;;;;;7.63;3.33;;;;;;;;;;5012968;28;20459;-69
2021/06/02 09:34:42;;;;;;;3.37;2.57;;;;;;;;;;4995978;28;20412;-69
2021/06/02 09:37:08;;;;;;;6.80;2.80;;;;;;;;;;5014942;28;20542;-69
2021/06/02 09:39:41;;;;;;;4.70;3.23;;;;;;;;;;5013763;28;20963;-69
2021/06/02 09:42:18;;;;;;;3.57;2.97;;;;;;;;;;5015248;28;20610;-69
2021/06/02 09:44:44;;;;;;;3.47;2.17;;;;;;;;;;5002380;28;20419;-69
2021/06/02 09:47:10;;;;;;;3.43;2.60;;;;;;;;;;5014906;28;20415;-69
2021/06/02 09:49:46;;;;;;;4.13;2.57;;;;;;;;;;5013879;28;20916;-69
2021/06/02 09:52:12;;;;;;;3.33;2.77;;;;;;;;;;5014560;28;20439;-69
2021/06/02 09:54:38;;;;;;;3.67;2.50;;;;;;;;;;5013736;28;20505;-68
2021/06/02 09:57:11;;;;;;;5.13;2.43;;;;;;;;;;5015234;28;20416;-69
2021/06/02 09:59:53;;;;;;;5.20;2.80;;;;;;;;;;5010271;28;20455;-70
2021/06/02 10:02:19;;;;;;;6.37;3.00;;;;;;;;;;5013273;28;20459;-70
2021/06/02 10:04:45;;;;;;;3.80;2.93;;;;;;;;;;5011534;28;20423;-69
2021/06/02 10:07:18;;;;;;;8.03;3.53;;;;;;;;;;5010002;28;20492;-68
2021/06/02 10:09:44;;;;;;;4.63;2.43;;;;;;;;;;4995265;28;20428;-69
2021/06/02 10:12:11;;;;;;;6.33;2.60;;;;;;;;;;4994623;28;20409;-68
2021/06/02 10:15:00;;;;;;;4.40;3.20;;;;;;;;;;5012386;28;20487;-69
2021/06/02 10:17:33;;;;;;;3.70;2.10;;;;;;;;;;5007996;28;20493;-69
2021/06/02 10:20:07;;;;;;;3.47;2.37;;;;;;;;;;4994293;28;20460;-69
2021/06/02 10:22:33;;;;;;;6.80;3.50;;;;;;;;;;4994466;28;20425;-70
2021/06/02 10:25:00;;;;;;;4.10;2.93;;;;;;;;;;5014055;28;20434;-69
2021/06/02 10:27:27;;;;;;;4.07;2.57;;;;;;;;;;5014029;28;20915;-69
2021/06/02 10:29:53;;;;;;;4.53;3.83;;;;;;;;;;5013935;28;20912;-69
2021/06/02 10:32:20;;;;;;;3.57;2.40;;;;;;;;;;5011901;28;20493;-69
2021/06/02 10:34:46;;;;;;;4.30;2.73;;;;;;;;;;5013414;28;20452;-69
2021/06/02 10:37:13;;;;;;;4.27;2.70;;;;;;;;;;5014191;28;20396;-68
2021/06/02 10:39:41;;;;;;;3.50;2.60;;;;;;;;;;5012989;28;20463;-69
2021/06/02 10:42:17;;;;;;;6.70;2.67;;;;;;;;;;5013743;28;20399;-69
2021/06/02 10:44:47;;;;;;;4.83;2.67;;;;;;;;;;5036013;23;20502;-69
2021/06/02 10:47:13;;;;;;;4.27;2.33;;;;;;;;;;5013291;28;20403;-68
2021/06/02 10:49:39;;;;;;;3.87;2.40;;;;;;;;;;5012216;28;20477;-69
2021/06/02 10:52:06;;;;;;;5.17;2.90;;;;;;;;;;5013175;28;20396;-69
2021/06/02 10:54:42;;;;;;;5.73;2.57;;;;;;;;;;5011271;28;20454;-69
2021/06/02 10:57:09;;;;;;;4.80;2.50;;;;;;;;;;5013509;28;20388;-68
2021/06/02 10:59:37;;;;;;;4.63;3.07;;;;;;;;;;5010544;28;20465;-67
2021/06/02 11:02:08;;;;;;;4.80;2.80;;;;;;;;;;5011733;28;20506;-68
2021/06/02 11:04:35;;;;;;;5.90;2.30;;;;;;;;;;5012364;28;20443;-68
2021/06/02 11:07:20;;;;;;;3.47;2.27;;;;;;;;;;5012411;28;20498;-68
2021/06/02 11:10:00;;;;;;;4.37;2.43;;;;;;;;;;5012334;28;20424;-68
2021/06/02 11:12:27;;;;;;;3.53;2.30;;;;;;;;;;5012932;28;20454;-68
2021/06/02 11:14:53;;;;;;;3.80;1.87;;;;;;;;;;5012161;28;20442;-68
2021/06/02 11:17:21;;;;;;;4.13;2.30;;;;;;;;;;5013283;28;20402;-68
2021/06/02 11:19:47;;;;;;;3.90;2.23;;;;;;;;;;5010965;28;20901;-69
2021/06/02 11:22:14;;;;;;;3.00;2.03;;;;;;;;;;5028352;28;20411;-68
2021/06/02 11:24:41;;;;;;;3.63;2.53;;;;;;;;;;5012210;28;20870;-68
2021/06/02 11:27:14;;;;;;;3.90;1.80;;;;;;;;;;5013231;28;20400;-68
2021/06/02 11:29:52;;;;;;;4.50;2.00;;;;;;;;;;5011885;28;20428;-68
2021/06/02 11:32:24;;;;;;;2.40;1.90;;;;;;;;;;5011649;28;20400;-68
2021/06/02 11:34:54;;;;;;;4.00;1.90;;;;;;;;;;5011428;28;20448;-68
2021/06/02 11:37:22;;;;;;;3.60;2.50;;;;;;;;;;5013030;28;20821;-69
2021/06/02 11:39:51;;;;;;;3.03;2.20;;;;;;;;;;5012292;28;20461;-68
2021/06/02 11:42:27;;;;;;;2.60;1.93;;;;;;;;;;5012669;28;20436;-68
2021/06/02 11:45:00;;;;;;;3.23;2.00;;;;;;;;;;5007560;28;20491;-68
2021/06/02 11:47:26;;;;;;;4.57;1.90;;;;;;;;;;4993265;28;20488;-68
2021/06/02 11:49:52;;;;;;;5.50;2.40;;;;;;;;;;5008036;28;20519;-68
2021/06/02 11:52:18;;;;;;;3.23;1.90;;;;;;;;;;5012576;28;20408;-68
2021/06/02 11:54:51;;;;;;;2.90;2.20;;;;;;;;;;5015650;28;20446;-68
2021/06/02 11:57:26;;;;;;;6.93;2.47;;;;;;;;;;5020313;28;20434;-68
2021/06/02 11:59:52;;;;;;;2.90;2.00;;;;;;;;;;5018851;28;20978;-69
2021/06/02 12:02:19;;;;;;;3.07;1.90;;;;;;;;;;5018923;28;20464;-67
2021/06/02 12:04:45;;;;;;;3.97;2.00;;;;;;;;;;5014505;28;20458;-68
2021/06/02 12:07:24;;;;;;;4.17;1.90;;;;;;;;;;5014926;28;20896;-68
2021/06/02 12:09:50;;;;;;;3.07;1.77;;;;;;;;;;5011952;28;20449;-68
2021/06/02 12:12:16;;;;;;;3.07;2.20;;;;;;;;;;5007999;28;20459;-67
2021/06/02 12:14:42;;;;;;;3.77;2.30;;;;;;;;;;4998120;28;20459;-68
2021/06/02 12:17:08;;;;;;;4.50;2.20;;;;;;;;;;4993091;28;20454;-68
2021/06/02 12:19:35;;;;;;;6.50;2.60;;;;;;;;;;5004671;28;20999;-68
2021/06/02 12:22:11;;;;;;;2.93;2.10;;;;;;;;;;5012558;28;20403;-68
2021/06/02 12:24:37;;;;;;;5.40;2.30;;;;;;;;;;5011208;28;20451;-68
2021/06/02 12:27:03;;;;;;;5.43;2.27;;;;;;;;;;5012587;28;20406;-68
2021/06/02 12:29:32;;;;;;;5.13;2.00;;;;;;;;;;5011910;28;20513;-70
2021/06/02 12:32:00;;;;;;;2.60;1.80;;;;;;;;;;5012681;28;20407;-69
2021/06/02 12:34:30;;;;;;;3.70;2.30;;;;;;;;;;5010987;28;20474;-69
2021/06/02 12:36:57;;;;;;;3.70;2.10;;;;;;;;;;5012459;28;20428;-69
2021/06/02 12:39:32;;;;;;;4.63;2.03;;;;;;;;;;5010256;28;20462;-69
2021/06/02 12:41:59;;;;;;;4.10;2.37;;;;;;;;;;5013296;28;20388;-69
2021/06/02 12:44:30;;;;;;;3.00;2.10;;;;;;;;;;5013569;28;20522;-69
2021/06/02 12:47:07;;;;;;;3.30;2.30;;;;;;;;;;5015218;28;20428;-69
2021/06/02 12:49:33;;;;;;;2.90;2.13;;;;;;;;;;5014895;28;20985;-69
2021/06/02 12:52:00;;;;;;;3.03;2.10;;;;;;;;;;5014869;28;20501;-69
2021/06/02 12:54:27;;;;;;;3.10;2.17;;;;;;;;;;5014529;28;20454;-69
2021/06/02 12:56:53;;;;;;;2.50;1.90;;;;;;;;;;5010266;28;20474;-69
2021/06/02 12:59:19;;;;;;;7.63;2.07;;;;;;;;;;5014701;28;20538;-69
2021/06/02 13:01:45;;;;;;;4.83;2.23;;;;;;;;;;5015719;28;20419;-69
2021/06/02 13:04:14;;;;;;;2.70;1.97;;;;;;;;;;5014662;28;20906;-69
2021/06/02 13:06:40;;;;;;;3.73;1.67;;;;;;;;;;5015857;28;20404;-69
2021/06/02 13:09:10;;;;;;;3.10;1.97;;;;;;;;;;5013926;28;20431;-69
2021/06/02 13:11:36;;;;;;;5.07;2.10;;;;;;;;;;5015347;28;20795;-68
2021/06/02 13:14:04;;;;;;;2.97;1.90;;;;;;;;;;5014090;28;20509;-68
2021/06/02 13:16:30;;;;;;;4.33;2.13;;;;;;;;;;5015429;28;20911;-69
2021/06/02 13:19:00;;;;;;;3.20;2.00;;;;;;;;;;5013092;28;20463;-68
2021/06/02 13:21:28;;;;;;;5.20;2.90;;;;;;;;;;5015739;28;20435;-68
2021/06/02 13:24:15;;;;;;;2.83;1.90;;;;;;;;;;5013915;28;20428;-68
2021/06/02 13:26:45;;;;;;;2.00;1.37;;;;;;;;;;5015485;28;20442;-69
2021/06/02 13:29:11;;;;;;;5.43;2.47;;;;;;;;;;5014330;28;20470;-69
2021/06/02 13:31:41;;;;;;;3.70;1.80;;;;;;;;;;5015247;28;20415;-69
2021/06/02 13:34:07;;;;;;;3.13;1.77;;;;;;;;;;5014006;28;20525;-68
2021/06/02 13:36:39;;;;;;;3.83;2.13;;;;;;;;;;5014695;28;20412;-69
2021/06/02 13:39:24;;;;;;;2.87;1.70;;;;;;;;;;5013825;28;20457;-69
2021/06/02 13:41:58;;;;;;;2.77;2.20;;;;;;;;;;5014750;28;20803;-69
2021/06/02 13:44:25;;;;;;;4.50;2.23;;;;;;;;;;5013197;28;20544;-69
2021/06/02 13:46:51;;;;;;;3.23;2.10;;;;;;;;;;5013486;28;20950;-69
2021/06/02 13:49:18;;;;;;;6.00;2.50;;;;;;;;;;5014110;28;20436;-68
2021/06/02 13:51:50;;;;;;;4.50;2.57;;;;;;;;;;5013401;28;20470;-68
2021/06/02 13:54:21;;;;;;;3.83;2.60;;;;;;;;;;5011486;28;20480;-69
2021/06/02 13:56:47;;;;;;;4.97;3.10;;;;;;;;;;5015038;28;20408;-69
2021/06/02 13:59:15;;;;;;;5.00;2.93;;;;;;;;;;5013800;28;20478;-69
2021/06/02 14:01:42;;;;;;;3.60;2.53;;;;;;;;;;5014639;28;20408;-68
2021/06/02 14:04:08;;;;;;;6.73;2.70;;;;;;;;;;5013165;28;20764;-68
2021/06/02 14:06:35;;;;;;;4.20;2.17;;;;;;;;;;5013302;28;20418;-69
2021/06/02 14:09:01;;;;;;;4.80;2.23;;;;;;;;;;5013070;28;20463;-69
2021/06/02 14:11:28;;;;;;;5.00;1.90;;;;;;;;;;5029672;28;20415;-69
2021/06/02 14:13:55;;;;;;;7.80;2.60;;;;;;;;;;5013244;28;20494;-68
2021/06/02 14:16:22;;;;;;;5.73;2.30;;;;;;;;;;5013798;28;20788;-69
2021/06/02 14:18:48;;;;;;;3.53;3.03;;;;;;;;;;5012823;28;20455;-69
2021/06/02 14:21:14;;;;;;;3.10;2.30;;;;;;;;;;5001993;28;20960;-67
2021/06/02 14:23:40;;;;;;;3.33;1.90;;;;;;;;;;5011353;28;20411;-66
2021/06/02 14:26:07;;;;;;;2.80;2.30;;;;;;;;;;5011648;28;20448;-74
2021/06/02 14:28:33;;;;;;;2.80;2.13;;;;;;;;;;5013150;28;20507;-74
2021/06/02 14:30:59;;;;;;;3.73;2.03;;;;;;;;;;5013032;28;20424;-76
2021/06/02 14:33:25;;;;;;;5.03;2.40;;;;;;;;;;5013832;28;20415;-73
2021/06/02 14:35:51;;;;;;;3.23;2.10;;;;;;;;;;5003700;28;20486;-72
2021/06/02 14:38:17;;;;;;;3.20;2.13;;;;;;;;;;5014053;28;20395;-68
2021/06/02 14:40:43;;;;;;;5.83;2.37;;;;;;;;;;5012556;28;20997;-71
2021/06/02 14:43:09;;;;;;;4.13;2.30;;;;;;;;;;5012691;28;20446;-71
2021/06/02 14:45:36;;;;;;;6.17;2.50;;;;;;;;;;5012263;28;20471;-70
2021/06/02 14:48:02;;;;;;;3.30;2.07;;;;;;;;;;5013273;28;20412;-70
2021/06/02 14:50:28;;;;;;;2.67;2.17;;;;;;;;;;5012500;28;20507;-72
2021/06/02 14:52:57;;;;;;;3.93;2.00;;;;;;;;;;5013518;28;20419;-72
2021/06/02 14:55:24;;;;;;;2.80;1.97;;;;;;;;;;5011956;28;20457;-71
2021/06/02 14:57:50;;;;;;;2.93;2.10;;;;;;;;;;5012318;28;20468;-74
2021/06/02 15:00:16;;;;;;;2.40;1.70;;;;;;;;;;5013090;28;20459;-70
2021/06/02 15:02:42;;;;;;;5.77;2.20;;;;;;;;;;5013541;28;20402;-71